createdAt,value
2022-10-09T00:01:21.978Z,102265.27
2022-10-09T00:03:53.170Z,102266.55
2022-10-09T00:06:32.443Z,102258.87
2022-10-09T00:09:01.250Z,102257.75
2022-10-09T00:11:30.566Z,102261.91
2022-10-09T00:13:59.327Z,102261.09
2022-10-09T00:16:27.510Z,102253.90
2022-10-09T00:18:56.094Z,102258.05
2022-10-09T00:21:26.374Z,102255.66
2022-10-09T00:23:56.782Z,102247.98
2022-10-09T00:26:25.607Z,102246.08
2022-10-09T00:28:53.996Z,102247.81
2022-10-09T00:31:21.994Z,102242.88
2022-10-09T00:33:49.908Z,102236.47
2022-10-09T00:36:20.524Z,102236.14
2022-10-09T00:38:48.404Z,102231.66
2022-10-09T00:41:25.479Z,102234.99
2022-10-09T00:44:00.141Z,102224.92
2022-10-09T00:46:46.335Z,102211.98
2022-10-09T00:49:16.227Z,102213.61
2022-10-09T00:51:46.699Z,102217.40
2022-10-09T00:54:17.368Z,102225.71
2022-10-09T00:56:45.241Z,102211.02
2022-10-09T00:59:13.541Z,102197.62
2022-10-09T01:01:42.765Z,102211.98
2022-10-09T01:04:10.553Z,102202.10
2022-10-09T01:06:52.583Z,102201.74
2022-10-09T01:09:47.475Z,102200.13
2022-10-09T01:12:18.097Z,102187.38
2022-10-09T01:14:57.142Z,102178.42
2022-10-09T01:18:00.417Z,102178.42
2022-10-09T01:21:01.795Z,102169.50
2022-10-09T01:23:42.810Z,102169.50
2022-10-09T01:26:32.199Z,102172.05
2022-10-09T01:29:07.911Z,102178.59
2022-10-09T01:31:41.236Z,102160.57
2022-10-09T01:34:11.299Z,102166.29
2022-10-09T01:36:40.786Z,102163.91
2022-10-09T01:39:10.764Z,102155.27
2022-10-09T01:41:38.986Z,102157.70
2022-10-09T01:44:20.540Z,102158.48
2022-10-09T01:46:48.977Z,102145.85
2022-10-09T01:49:40.940Z,102147.45
2022-10-09T01:52:45.586Z,102144.28
2022-10-09T01:55:35.389Z,102137.25
2022-10-09T01:58:28.081Z,102138.53
2022-10-09T02:01:02.993Z,102142.20
2022-10-09T02:03:31.609Z,102134.51
2022-10-09T02:06:02.392Z,102132.61
2022-10-09T02:08:32.972Z,102127.31
2022-10-09T02:11:03.678Z,102129.90
2022-10-09T02:13:33.472Z,102127.48
2022-10-09T02:16:22.725Z,102128.42
2022-10-09T02:19:03.169Z,102127.31
2022-10-09T02:21:46.199Z,102126.17
2022-10-09T02:24:20.003Z,102127.94
2022-10-09T02:26:47.878Z,102126.01
2022-10-09T02:29:16.638Z,102124.08
2022-10-09T02:31:45.124Z,102127.90
2022-10-09T02:34:17.835Z,102126.30
2022-10-09T02:36:45.446Z,102128.52
2022-10-09T02:39:13.965Z,102126.13
2022-10-09T02:41:41.700Z,102122.44
2022-10-09T02:44:09.415Z,102122.60
2022-10-09T02:46:38.936Z,102115.25
2022-10-09T02:49:07.804Z,102114.13
2022-10-09T02:51:35.800Z,102123.68
2022-10-09T02:54:03.453Z,102117.96
2022-10-09T02:56:34.502Z,102118.06
2022-10-09T02:59:04.495Z,102119.34
2022-10-09T03:01:32.276Z,102113.74
2022-10-09T03:04:00.198Z,102111.35
2022-10-09T03:06:29.528Z,102107.34
2022-10-09T03:08:57.829Z,102107.04
2022-10-09T03:11:26.615Z,102104.29
2022-10-09T03:13:55.591Z,102107.95
2022-10-09T03:16:26.141Z,102104.42
2022-10-09T03:18:54.952Z,102097.10
2022-10-09T03:21:25.806Z,102103.28
2022-10-09T03:23:54.506Z,102094.02
2022-10-09T03:26:25.197Z,102086.34
2022-10-09T03:28:54.205Z,102089.22
2022-10-09T03:34:12.731Z,102086.54
2022-10-09T03:36:40.888Z,102098.77
2022-10-09T03:39:08.617Z,102088.11
2022-10-09T03:41:36.260Z,102083.66
2022-10-09T03:44:03.873Z,102088.23
2022-10-09T03:46:31.650Z,102086.18
2022-10-09T03:48:59.310Z,102088.73
2022-10-09T03:51:27.677Z,102074.86
2022-10-09T03:53:55.355Z,102081.04
2022-10-09T03:56:23.008Z,102074.99
2022-10-09T03:58:50.751Z,102079.93
2022-10-09T04:01:18.454Z,102078.33
2022-10-09T04:03:46.201Z,102068.95
2022-10-09T04:06:13.860Z,102064.43
2022-10-09T04:08:41.605Z,102071.46
2022-10-09T04:11:09.270Z,102062.83
2022-10-09T04:13:37.068Z,102065.38
2022-10-09T04:16:04.813Z,102074.80
2022-10-09T04:18:32.457Z,102062.99
2022-10-09T04:21:00.173Z,102073.69
2022-10-09T04:23:28.996Z,102067.60
2022-10-09T04:25:59.558Z,102073.03
2022-10-09T04:28:29.282Z,102066.13
2022-10-09T04:31:00.575Z,102066.59
2022-10-09T04:33:28.483Z,102074.44
2022-10-09T04:35:56.839Z,102065.97
2022-10-09T04:38:25.987Z,102062.27
2022-10-09T04:41:01.762Z,102065.97
2022-10-09T04:43:31.000Z,102072.64
2022-10-09T04:45:59.061Z,102067.37
2022-10-09T04:48:27.010Z,102063.81
2022-10-09T04:50:54.733Z,102059.85
2022-10-09T04:53:22.438Z,102058.25
2022-10-09T04:55:50.629Z,102059.98
2022-10-09T04:58:18.270Z,102056.59
2022-10-09T05:00:47.324Z,102050.86
2022-10-09T05:03:15.116Z,102047.16
2022-10-09T05:05:42.812Z,102046.38
2022-10-09T05:08:10.474Z,102050.50
2022-10-09T05:10:38.158Z,102050.17
2022-10-09T05:13:05.957Z,102052.69
2022-10-09T05:15:37.799Z,102049.52
2022-10-09T05:18:05.585Z,102049.98
2022-10-09T05:20:33.273Z,102049.20
2022-10-09T05:23:00.951Z,102044.22
2022-10-09T05:25:28.624Z,102046.77
2022-10-09T05:27:56.265Z,102048.87
2022-10-09T05:30:23.900Z,102047.23
2022-10-09T05:32:52.113Z,102053.90
2022-10-09T05:35:19.939Z,102053.12
2022-10-09T05:37:47.649Z,102050.73
2022-10-09T05:40:15.328Z,102051.97
2022-10-09T05:42:42.995Z,102057.23
2022-10-09T05:45:12.009Z,102065.18
2022-10-09T05:47:39.714Z,102057.04
2022-10-09T05:50:07.617Z,102054.16
2022-10-09T05:52:37.020Z,102058.31
2022-10-09T05:55:04.888Z,102055.44
2022-10-09T05:57:32.564Z,102061.16
2022-10-09T06:00:00.261Z,102054.66
2022-10-09T06:02:27.904Z,102059.23
2022-10-09T06:04:55.734Z,102062.93
2022-10-09T06:07:23.450Z,102064.98
2022-10-09T06:09:51.869Z,102062.44
2022-10-09T06:12:19.557Z,102061.65
2022-10-09T06:14:47.472Z,102060.05
2022-10-09T06:17:15.131Z,102065.31
2022-10-09T06:19:42.874Z,102062.11
2022-10-09T06:22:10.502Z,102069.89
2022-10-09T06:24:38.422Z,102070.25
2022-10-09T06:27:06.160Z,102081.70
2022-10-09T06:29:33.821Z,102069.30
2022-10-09T06:32:01.530Z,102072.51
2022-10-09T06:34:29.202Z,102072.05
2022-10-09T06:36:57.088Z,102071.10
2022-10-09T06:39:24.892Z,102073.98
2022-10-09T06:41:52.574Z,102081.30
2022-10-09T06:44:20.226Z,102077.97
2022-10-09T06:46:50.693Z,102080.39
2022-10-09T06:49:18.489Z,102077.84
2022-10-09T06:51:46.204Z,102088.70
2022-10-09T06:54:17.141Z,102075.52
2022-10-09T06:56:44.855Z,102083.16
2022-10-09T06:59:12.971Z,102086.73
2022-10-09T07:01:40.951Z,102092.78
2022-10-09T07:04:15.439Z,102094.38
2022-10-09T07:06:45.553Z,102098.70
2022-10-09T07:09:15.591Z,102101.77
2022-10-09T07:11:46.584Z,102097.20
2022-10-09T07:14:16.925Z,102096.25
2022-10-09T07:16:47.107Z,102098.83
2022-10-09T07:19:16.271Z,102101.55
2022-10-09T07:21:45.768Z,102104.59
2022-10-09T07:24:14.589Z,102100.01
2022-10-09T07:26:44.856Z,102104.65
2022-10-09T07:29:15.955Z,102108.67
2022-10-09T07:31:43.670Z,102111.06
2022-10-09T07:34:11.772Z,102101.38
2022-10-09T07:36:39.463Z,102101.71
2022-10-09T07:39:07.522Z,102102.82
2022-10-09T07:41:35.913Z,102110.21
2022-10-09T07:44:03.520Z,102103.05
2022-10-09T07:46:34.003Z,102099.23
2022-10-09T07:49:03.056Z,102100.50
2022-10-09T07:51:32.436Z,102110.47
2022-10-09T07:54:02.855Z,102098.51
2022-10-09T07:56:36.521Z,102103.31
2022-10-09T07:59:06.939Z,102099.03
2022-10-09T08:01:36.524Z,102104.59
2022-10-09T08:04:05.103Z,102102.36
2022-10-09T08:06:34.006Z,102093.77
2022-10-09T08:09:04.017Z,102101.74
2022-10-09T08:11:32.286Z,102098.24
2022-10-09T08:14:00.467Z,102103.51
2022-10-09T08:16:29.563Z,102100.17
2022-10-09T08:18:59.151Z,102095.07
2022-10-09T08:21:29.401Z,102096.05
2022-10-09T08:23:58.776Z,102102.27
2022-10-09T08:26:29.285Z,102088.73
2022-10-09T08:29:00.226Z,102092.06
2022-10-09T08:31:29.187Z,102091.44
2022-10-09T08:33:58.611Z,102093.05
2022-10-09T08:36:27.393Z,102084.90
2022-10-09T08:38:55.084Z,102084.25
2022-10-09T08:41:55.284Z,102086.96
2022-10-09T08:44:46.881Z,102078.33
2022-10-09T08:47:23.146Z,102086.50
2022-10-09T08:49:58.812Z,102093.83
2022-10-09T08:52:32.755Z,102081.53
2022-10-09T08:55:07.462Z,102085.23
2022-10-09T08:57:35.725Z,102085.85
2022-10-09T09:00:03.337Z,102087.42
2022-10-09T09:03:10.205Z,102085.20
2022-10-09T09:05:50.728Z,102077.05
2022-10-09T09:08:28.501Z,102085.36
2022-10-09T09:11:24.135Z,102078.16
2022-10-09T09:14:28.847Z,102072.34
2022-10-09T09:17:25.619Z,102070.91
2022-10-09T09:20:21.970Z,102067.24
2022-10-09T09:22:51.467Z,102063.05
2022-10-09T09:25:29.595Z,102061.26
2022-10-09T09:28:03.290Z,102056.91
2022-10-09T09:30:41.811Z,102058.97
2022-10-09T09:33:12.549Z,102056.19
2022-10-09T09:35:58.214Z,102055.44
2022-10-09T09:38:26.062Z,102057.27
2022-10-09T09:40:54.526Z,102061.39
2022-10-09T09:43:24.636Z,102053.77
2022-10-09T09:45:59.030Z,102045.92
2022-10-09T09:48:37.020Z,102039.87
2022-10-09T09:51:27.565Z,102048.70
2022-10-09T09:54:06.871Z,102046.94
2022-10-09T09:56:59.874Z,102042.26
2022-10-09T09:59:32.804Z,102035.33
2022-10-09T10:02:11.810Z,102045.70
2022-10-09T10:04:49.798Z,102037.81
2022-10-09T10:07:32.442Z,102037.45
2022-10-09T10:10:09.033Z,102032.05
2022-10-09T10:12:49.230Z,102034.51
2022-10-09T10:15:29.497Z,102039.28
2022-10-09T10:18:04.497Z,102035.62
2022-10-09T10:20:34.604Z,102033.86
2022-10-09T10:23:02.272Z,102040.69
2022-10-09T10:25:35.135Z,102037.52
2022-10-09T10:28:14.239Z,102033.34
2022-10-09T10:30:43.410Z,102027.67
2022-10-09T10:33:18.758Z,102033.59
2022-10-09T10:35:50.191Z,102034.02
2022-10-09T10:38:58.493Z,102031.53
2022-10-09T10:41:35.116Z,102027.48
2022-10-09T10:44:20.088Z,102023.39
2022-10-09T10:46:53.581Z,102026.27
2022-10-09T10:49:23.450Z,102029.08
2022-10-09T10:51:54.854Z,102028.36
2022-10-09T10:54:46.233Z,102022.94
2022-10-09T10:57:31.100Z,102017.73
2022-10-09T11:00:09.257Z,102012.18
2022-10-09T11:02:56.041Z,102016.33
2022-10-09T11:05:33.299Z,102026.40
2022-10-09T11:08:32.623Z,102022.21
2022-10-09T11:11:06.866Z,102020.41
2022-10-09T11:14:02.438Z,102019.14
2022-10-09T11:16:36.100Z,102017.15
2022-10-09T11:19:30.168Z,102012.86
2022-10-09T11:22:07.983Z,102013.16
2022-10-09T11:25:03.473Z,102013.95
2022-10-09T11:27:55.864Z,102013.16
2022-10-09T11:30:23.610Z,102008.68
2022-10-09T11:33:06.402Z,102004.00
2022-10-09T11:35:53.176Z,102004.59
2022-10-09T11:38:26.806Z,101995.14
2022-10-09T11:40:55.694Z,101989.87
2022-10-09T11:43:26.232Z,101989.81
2022-10-09T11:46:26.977Z,101986.48
2022-10-09T11:49:21.315Z,101977.97
2022-10-09T11:52:05.958Z,101979.45
2022-10-09T11:54:34.547Z,101977.05
2022-10-09T11:57:06.577Z,101977.05
2022-10-09T11:59:37.539Z,101971.46
2022-10-09T12:02:28.900Z,101971.95
2022-10-09T12:04:57.840Z,101964.80
2022-10-09T12:07:35.767Z,101962.02
2022-10-09T12:10:10.216Z,101957.63
2022-10-09T12:12:39.883Z,101956.16
2022-10-09T12:15:54.566Z,101959.86
2022-10-09T12:18:28.149Z,101950.18
2022-10-09T12:20:57.546Z,101947.92
2022-10-09T12:23:31.062Z,101944.29
2022-10-09T12:26:00.207Z,101942.72
2022-10-09T12:28:39.526Z,101936.64
2022-10-09T12:31:18.583Z,101937.42
2022-10-09T12:33:55.804Z,101936.21
2022-10-09T12:36:26.794Z,101919.99
2022-10-09T12:38:54.995Z,101928.46
2022-10-09T12:41:27.539Z,101927.45
2022-10-09T12:43:57.321Z,101920.38
2022-10-09T12:46:29.859Z,101922.19
2022-10-09T12:48:58.477Z,101919.11
2022-10-09T12:51:28.048Z,101919.70
2022-10-09T12:53:56.435Z,101913.62
2022-10-09T12:56:39.592Z,101907.66
2022-10-09T12:59:08.465Z,101913.20
2022-10-09T13:01:36.923Z,101902.96
2022-10-09T13:04:11.704Z,101913.20
2022-10-09T13:06:45.853Z,101900.34
2022-10-09T13:09:41.013Z,101887.20
2022-10-09T13:12:22.069Z,101888.50
2022-10-09T13:14:52.721Z,101882.95
2022-10-09T13:17:34.606Z,101876.96
2022-10-09T13:20:25.543Z,101872.48
2022-10-09T13:23:05.138Z,101878.56
2022-10-09T13:25:43.273Z,101872.77
2022-10-09T13:28:21.476Z,101876.54
2022-10-09T13:30:49.264Z,101867.67
2022-10-09T13:33:17.650Z,101867.48
2022-10-09T13:35:45.782Z,101860.97
2022-10-09T13:38:18.513Z,101860.48
2022-10-09T13:40:46.155Z,101862.12
2022-10-09T13:43:22.049Z,101856.13
2022-10-09T13:45:49.823Z,101855.31
2022-10-09T13:48:18.603Z,101856.36
2022-10-09T13:50:47.109Z,101855.31
2022-10-09T13:53:14.781Z,101856.91
2022-10-09T13:55:42.573Z,101844.88
2022-10-09T13:58:10.375Z,101851.72
2022-10-09T14:00:38.610Z,101852.50
2022-10-09T14:03:06.409Z,101842.79
2022-10-09T14:05:34.034Z,101845.96
2022-10-09T14:08:01.885Z,101842.27
2022-10-09T14:10:29.587Z,101838.60
2022-10-09T14:12:57.361Z,101838.60
2022-10-09T14:15:25.040Z,101831.45
2022-10-09T14:17:52.641Z,101831.93
2022-10-09T14:20:21.006Z,101820.39
2022-10-09T14:22:48.833Z,101829.05
2022-10-09T14:25:16.798Z,101827.48
2022-10-09T14:27:44.431Z,101816.37
2022-10-09T14:30:12.602Z,101815.29
2022-10-09T14:32:40.237Z,101815.78
2022-10-09T14:35:08.486Z,101815.78
2022-10-09T14:37:41.524Z,101813.33
2022-10-09T14:40:11.147Z,101815.12
2022-10-09T14:42:39.873Z,101802.50
2022-10-09T14:45:08.825Z,101798.74
2022-10-09T14:47:36.638Z,101799.98
2022-10-09T14:50:05.083Z,101798.32
2022-10-09T14:52:32.722Z,101795.93
2022-10-09T14:55:00.449Z,101788.77
2022-10-09T14:57:31.644Z,101788.51
2022-10-09T15:00:03.395Z,101784.45
2022-10-09T15:02:31.080Z,101784.06
2022-10-09T15:04:58.711Z,101791.35
2022-10-09T15:07:29.081Z,101789.48
2022-10-09T15:09:58.017Z,101784.42
2022-10-09T15:12:25.749Z,101785.14
2022-10-09T15:14:53.490Z,101784.02
2022-10-09T15:17:21.121Z,101783.47
2022-10-09T15:19:48.911Z,101790.83
2022-10-09T15:22:16.587Z,101787.40
2022-10-09T15:24:44.211Z,101784.84
2022-10-09T15:27:11.875Z,101780.66
2022-10-09T15:29:39.582Z,101780.13
2022-10-09T15:32:07.274Z,101781.64
2022-10-09T15:34:38.748Z,101780.07
2022-10-09T15:37:08.489Z,101783.66
2022-10-09T15:39:36.341Z,101780.85
2022-10-09T15:42:04.626Z,101775.00
2022-10-09T15:44:32.303Z,101773.92
2022-10-09T15:46:59.975Z,101769.15
2022-10-09T15:49:27.616Z,101776.21
2022-10-09T15:51:55.249Z,101771.14
2022-10-09T15:54:23.022Z,101769.54
2022-10-09T15:56:50.775Z,101771.96
2022-10-09T15:59:18.461Z,101759.60
2022-10-09T16:01:46.311Z,101768.37
2022-10-09T16:04:14.067Z,101756.63
2022-10-09T16:06:41.717Z,101761.59
2022-10-09T16:09:09.471Z,101756.63
2022-10-09T16:11:37.164Z,101762.18
2022-10-09T16:14:05.594Z,101751.36
2022-10-09T16:16:33.348Z,101753.26
2022-10-09T16:19:04.092Z,101747.47
2022-10-09T16:21:32.047Z,101750.09
2022-10-09T16:24:00.954Z,101752.87
2022-10-09T16:26:30.353Z,101750.48
2022-10-09T16:28:58.498Z,101750.67
2022-10-09T16:31:29.371Z,101754.86
2022-10-09T16:33:57.421Z,101759.73
2022-10-09T16:36:25.310Z,101766.20
2022-10-09T16:38:53.111Z,101768.27
2022-10-09T16:41:23.032Z,101768.79
2022-10-09T16:43:55.549Z,101768.16
2022-10-09T16:46:27.205Z,101768.98
2022-10-09T16:48:56.573Z,101762.12
2022-10-09T16:51:28.017Z,101765.20
2022-10-09T16:53:58.456Z,101770.45
2022-10-09T16:56:32.456Z,101773.07
2022-10-09T16:59:02.699Z,101763.82
2022-10-09T17:01:31.243Z,101756.46
2022-10-09T17:04:00.258Z,101764.11
2022-10-09T17:06:28.834Z,101770.45
2022-10-09T17:08:59.172Z,101764.60
2022-10-09T17:11:30.101Z,101767.19
2022-10-09T17:13:58.871Z,101767.09
2022-10-09T17:16:29.429Z,101768.37
2022-10-09T17:18:57.299Z,101766.76
2022-10-09T17:21:27.874Z,101773.30
2022-10-09T17:24:02.261Z,101770.78
2022-10-09T17:26:30.442Z,101763.23
2022-10-09T17:28:59.627Z,101760.29
2022-10-09T17:31:28.706Z,101765.87
2022-10-09T17:33:59.754Z,101771.30
2022-10-09T17:36:29.845Z,101775.33
2022-10-09T17:38:58.256Z,101772.55
2022-10-09T17:41:27.731Z,101780.98
2022-10-09T17:43:57.126Z,101770.26
2022-10-09T17:46:26.322Z,101774.74
2022-10-09T17:48:54.499Z,101769.57
2022-10-09T17:51:43.619Z,101777.29
2022-10-09T17:54:18.073Z,101772.91
2022-10-09T17:56:46.333Z,101776.48
2022-10-09T17:59:14.250Z,101775.55
2022-10-09T18:01:42.186Z,101773.66
2022-10-09T18:04:15.024Z,101777.52
2022-10-09T18:06:42.745Z,101772.29
2022-10-09T18:09:10.840Z,101776.93
2022-10-09T18:11:38.616Z,101782.39
2022-10-09T18:14:06.540Z,101777.29
2022-10-09T18:16:37.606Z,101770.91
2022-10-09T18:19:08.624Z,101771.08
2022-10-09T18:21:36.753Z,101775.13
2022-10-09T18:24:04.581Z,101782.16
2022-10-09T18:26:32.517Z,101776.31
2022-10-09T18:29:01.802Z,101777.26
2022-10-09T18:31:30.378Z,101780.01
2022-10-09T18:33:59.795Z,101774.48
2022-10-09T18:36:32.747Z,101771.77
2022-10-09T18:39:06.817Z,101770.81
2022-10-09T18:41:34.557Z,101771.83
2022-10-09T18:44:03.442Z,101758.09
2022-10-09T18:46:37.039Z,101766.11
2022-10-09T18:49:09.732Z,101755.61
2022-10-09T18:51:40.673Z,101751.30
2022-10-09T18:54:08.823Z,101759.11
2022-10-09T18:56:37.632Z,101752.27
2022-10-09T18:59:09.607Z,101752.60
2022-10-09T19:01:37.431Z,101757.21
2022-10-09T19:04:06.019Z,101752.77
2022-10-09T19:06:33.631Z,101754.04
2022-10-09T19:09:02.053Z,101754.83
2022-10-09T19:11:32.462Z,101751.66
2022-10-09T19:14:03.195Z,101749.46
2022-10-09T19:16:33.470Z,101750.70
2022-10-09T19:19:01.242Z,101745.48
2022-10-09T19:21:28.912Z,101740.08
2022-10-09T19:23:56.891Z,101741.52
2022-10-09T19:26:24.867Z,101744.55
2022-10-09T19:28:53.050Z,101746.81
2022-10-09T19:31:20.674Z,101740.63
2022-10-09T19:33:48.761Z,101749.10
2022-10-09T19:36:16.449Z,101744.16
2022-10-09T19:38:45.033Z,101742.14
2022-10-09T19:41:16.655Z,101741.02
2022-10-09T19:43:44.410Z,101733.08
2022-10-09T19:46:15.667Z,101735.92
2022-10-09T19:48:43.345Z,101741.68
2022-10-09T19:51:17.492Z,101736.71
2022-10-09T19:53:45.912Z,101744.07
2022-10-09T19:56:16.890Z,101742.47
2022-10-09T19:58:46.137Z,101744.23
2022-10-09T20:01:15.876Z,101738.80
2022-10-09T20:03:44.028Z,101749.34
2022-10-09T20:06:12.736Z,101749.98
2022-10-09T20:08:42.448Z,101761.63
2022-10-09T20:11:12.580Z,101748.71
2022-10-09T20:13:42.218Z,101762.28
2022-10-09T20:16:13.462Z,101754.92
2022-10-09T20:18:43.587Z,101754.92
2022-10-09T20:21:14.164Z,101765.62
2022-10-09T20:23:42.533Z,101763.52
2022-10-09T20:26:14.082Z,101757.48
2022-10-09T20:28:42.358Z,101757.48
2022-10-09T20:31:15.686Z,101773.40
2022-10-09T20:33:43.998Z,101765.45
2022-10-09T20:36:32.924Z,101758.29
2022-10-09T20:39:02.464Z,101764.02
2022-10-09T20:41:31.608Z,101763.39
2022-10-09T20:44:01.440Z,101755.87
2022-10-09T20:46:30.763Z,101758.42
2022-10-09T20:48:58.582Z,101763.85
2022-10-09T20:51:27.499Z,101768.00
2022-10-09T20:54:00.218Z,101771.05
2022-10-09T20:56:30.873Z,101763.20
2022-10-09T20:58:58.996Z,101767.71
2022-10-09T21:01:26.929Z,101763.39
2022-10-09T21:03:56.146Z,101764.99
2022-10-09T21:06:24.445Z,101772.32
2022-10-09T21:08:52.116Z,101779.48
2022-10-09T21:11:21.116Z,101773.27
2022-10-09T21:13:50.260Z,101768.79
2022-10-09T21:16:21.697Z,101776.77
2022-10-09T21:18:53.660Z,101783.80
2022-10-09T21:21:21.579Z,101778.83
2022-10-09T21:23:52.389Z,101778.37
2022-10-09T21:26:21.694Z,101768.16
2022-10-09T21:28:51.667Z,101780.43
2022-10-09T21:31:27.393Z,101781.25
2022-10-09T21:33:55.364Z,101770.88
2022-10-09T21:37:01.733Z,101769.45
2022-10-09T21:39:31.759Z,101778.50
2022-10-09T21:42:01.342Z,101776.93
2022-10-09T21:44:29.002Z,101773.73
2022-10-09T21:46:57.027Z,101773.56
2022-10-09T21:49:27.034Z,101777.72
2022-10-09T21:51:55.573Z,101777.23
2022-10-09T21:54:23.613Z,101776.60
2022-10-09T21:56:51.399Z,101778.20
2022-10-09T21:59:19.171Z,101774.19
2022-10-09T22:01:46.863Z,101780.27
2022-10-09T22:04:14.664Z,101778.04
2022-10-09T22:06:42.386Z,101776.31
2022-10-09T22:09:11.411Z,101784.75
2022-10-09T22:11:39.631Z,101785.37
2022-10-09T22:14:08.335Z,101778.50
2022-10-09T22:16:35.987Z,101788.41
2022-10-09T22:19:03.762Z,101785.86
2022-10-09T22:21:31.521Z,101780.43
2022-10-09T22:24:01.161Z,101793.51
2022-10-09T22:26:28.896Z,101784.91
2022-10-09T22:28:56.586Z,101784.42
2022-10-09T22:31:26.952Z,101792.23
2022-10-09T22:33:56.577Z,101793.51
2022-10-09T22:36:26.930Z,101787.13
2022-10-09T22:38:56.384Z,101789.03
2022-10-09T22:41:25.793Z,101789.39
2022-10-09T22:43:55.687Z,101789.69
2022-10-09T22:46:29.232Z,101786.67
2022-10-09T22:48:57.506Z,101784.42
2022-10-09T22:51:27.020Z,101782.98
2022-10-09T22:53:55.422Z,101785.40
2022-10-09T22:56:25.806Z,101784.59
2022-10-09T22:58:54.295Z,101785.86
2022-10-09T23:01:31.065Z,101778.70
2022-10-09T23:04:00.206Z,101780.43
2022-10-09T23:06:27.860Z,101769.77
2022-10-09T23:08:55.582Z,101778.83
2022-10-09T23:11:24.266Z,101780.76
2022-10-09T23:13:59.709Z,101781.09
2022-10-09T23:16:28.742Z,101783.77
2022-10-09T23:18:58.233Z,101782.82
2022-10-09T23:21:26.268Z,101782.33
2022-10-09T23:23:54.201Z,101783.96
2022-10-09T23:26:24.817Z,101783.60
2022-10-09T23:28:54.646Z,101784.59
2022-10-09T23:31:23.214Z,101783.60
2022-10-09T23:33:50.979Z,101783.14
2022-10-09T23:36:23.082Z,101779.81
2022-10-09T23:38:51.978Z,101784.26
2022-10-09T23:41:22.112Z,101780.89
2022-10-09T23:43:50.037Z,101782.33
2022-10-09T23:46:20.389Z,101778.17
2022-10-09T23:48:49.274Z,101779.29
2022-10-09T23:51:18.306Z,101784.09
2022-10-09T23:53:46.334Z,101775.49
2022-10-09T23:56:20.616Z,101774.22
2022-10-09T23:58:48.546Z,101778.70
